createdAt,value
2018-04-11T00:00:07.871Z,22.2
2018-04-11T00:01:09.523Z,23.4
2018-04-11T00:02:11.170Z,24.4
2018-04-11T00:03:12.820Z,23.7
2018-04-11T00:04:14.482Z,22.6
2018-04-11T00:05:16.121Z,21.3
2018-04-11T00:06:17.783Z,22.9
2018-04-11T00:07:19.484Z,23.7
2018-04-11T00:08:21.106Z,22.5
2018-04-11T00:09:22.761Z,22.2
2018-04-11T00:10:24.420Z,24.2
2018-04-11T00:11:26.077Z,23.6
2018-04-11T00:12:27.737Z,23.4
2018-04-11T00:13:29.384Z,21.4
2018-04-11T00:14:31.032Z,22.3
2018-04-11T00:15:32.682Z,23.3
2018-04-11T00:16:34.337Z,24.0
2018-04-11T00:17:35.985Z,23.0
2018-04-11T00:18:37.634Z,24.4
2018-04-11T00:19:39.284Z,24.3
2018-04-11T00:20:40.931Z,24.3
2018-04-11T00:21:42.590Z,24.6
2018-04-11T00:22:44.249Z,23.9
2018-04-11T00:23:45.900Z,24.4
2018-04-11T00:24:47.567Z,25.4
2018-04-11T00:25:50.163Z,24.4
2018-04-11T00:26:51.803Z,23.4
2018-04-11T00:27:53.469Z,24.3
2018-04-11T00:28:55.123Z,24.1
2018-04-11T00:29:56.767Z,24.8
2018-04-11T00:30:58.429Z,23.7
2018-04-11T00:32:00.066Z,25.2
2018-04-11T00:33:01.723Z,23.9
2018-04-11T00:34:03.375Z,23.9
2018-04-11T00:35:05.029Z,22.5
2018-04-11T00:36:06.675Z,23.3
2018-04-11T00:37:08.326Z,22.2
2018-04-11T00:38:09.981Z,24.1
2018-04-11T00:39:11.633Z,25.2
2018-04-11T00:40:13.288Z,23.0
2018-04-11T00:41:14.935Z,22.0
2018-04-11T00:42:16.596Z,21.7
2018-04-11T00:43:18.252Z,22.3
2018-04-11T00:44:19.904Z,23.5
2018-04-11T00:45:21.552Z,22.8
2018-04-11T00:46:23.210Z,23.5
2018-04-11T00:47:24.857Z,22.9
2018-04-11T00:48:26.496Z,22.9
2018-04-11T00:49:28.147Z,22.5
2018-04-11T00:50:29.796Z,23.3
2018-04-11T00:51:31.446Z,23.8
2018-04-11T00:52:33.091Z,21.7
2018-04-11T00:53:34.743Z,23.3
2018-04-11T00:54:36.395Z,22.3
2018-04-11T00:55:38.037Z,22.0
2018-04-11T00:56:39.704Z,22.4
2018-04-11T00:57:41.350Z,22.8
2018-04-11T00:58:43.000Z,22.0
2018-04-11T00:59:44.660Z,23.2
2018-04-11T01:00:46.300Z,22.0
2018-04-11T01:01:47.981Z,22.6
2018-04-11T01:02:49.637Z,22.4
2018-04-11T01:03:51.281Z,21.8
2018-04-11T01:04:52.937Z,21.8
2018-04-11T01:05:54.591Z,22.4
2018-04-11T01:06:56.231Z,23.3
2018-04-11T01:07:57.893Z,22.2
2018-04-11T01:08:59.548Z,22.3
2018-04-11T01:10:01.195Z,21.5
2018-04-11T01:11:02.846Z,23.3
2018-04-11T01:12:04.501Z,23.0
2018-04-11T01:13:06.154Z,22.4
2018-04-11T01:14:07.800Z,21.1
2018-04-11T01:15:09.465Z,21.5
2018-04-11T01:16:11.131Z,22.4
2018-04-11T01:17:12.773Z,21.1
2018-04-11T01:18:14.416Z,21.1
2018-04-11T01:19:16.059Z,20.9
2018-04-11T01:20:17.712Z,20.1
2018-04-11T01:21:19.359Z,21.9
2018-04-11T01:22:21.014Z,20.0
2018-04-11T01:23:22.662Z,20.8
2018-04-11T01:24:24.325Z,20.9
2018-04-11T01:25:26.001Z,21.4
2018-04-11T01:26:27.644Z,20.9
2018-04-11T01:27:29.293Z,20.9
2018-04-11T01:28:30.938Z,20.7
2018-04-11T01:29:32.594Z,21.3
2018-04-11T01:30:34.247Z,19.7
2018-04-11T01:31:35.901Z,20.8
2018-04-11T01:32:37.545Z,20.2
2018-04-11T01:33:39.189Z,20.5
2018-04-11T01:34:40.842Z,19.2
2018-04-11T01:35:42.495Z,20.1
2018-04-11T01:36:44.142Z,20.3
2018-04-11T01:37:45.793Z,19.0
2018-04-11T01:38:47.479Z,19.6
2018-04-11T01:39:49.132Z,20.5
2018-04-11T01:40:50.787Z,20.2
2018-04-11T01:41:52.437Z,19.6
2018-04-11T01:42:54.082Z,20.0
2018-04-11T01:43:55.744Z,20.5
2018-04-11T01:44:57.398Z,20.4
2018-04-11T01:45:59.050Z,20.0
2018-04-11T01:47:00.697Z,19.4
2018-04-11T01:48:02.352Z,19.4
2018-04-11T01:49:04.007Z,19.2
2018-04-11T01:50:05.668Z,19.8
2018-04-11T01:51:07.316Z,18.6
2018-04-11T01:52:08.972Z,20.2
2018-04-11T01:53:10.627Z,22.3
2018-04-11T01:54:12.284Z,23.3
2018-04-11T01:55:13.933Z,23.5
2018-04-11T02:01:28.309Z,21.0
2018-04-11T02:02:29.958Z,24.2
2018-04-11T02:04:21.918Z,24.9
2018-04-11T02:05:23.562Z,24.3
2018-04-11T02:07:15.445Z,24.5
2018-04-11T02:08:17.094Z,25.2
2018-04-11T02:09:18.747Z,24.9
2018-04-11T02:10:20.390Z,25.1
2018-04-11T02:11:22.044Z,23.4
2018-04-11T02:12:23.694Z,23.8
2018-04-11T02:13:25.346Z,23.1
2018-04-11T02:14:26.994Z,23.6
2018-04-11T02:15:28.650Z,23.2
2018-04-11T02:16:30.294Z,22.2
2018-04-11T02:17:31.955Z,22.4
2018-04-11T02:18:33.609Z,21.5
2018-04-11T02:19:35.257Z,22.0
2018-04-11T02:20:36.923Z,22.5
2018-04-11T02:21:38.588Z,21.6
2018-04-11T02:22:40.240Z,23.7
2018-04-11T02:23:41.892Z,21.7
2018-04-11T02:24:43.535Z,23.0
2018-04-11T02:25:45.191Z,23.4
2018-04-11T02:26:46.839Z,21.3
2018-04-11T02:27:48.484Z,23.4
2018-04-11T02:28:50.141Z,21.1
2018-04-11T02:29:51.788Z,21.5
2018-04-11T02:30:53.436Z,23.8
2018-04-11T02:31:55.092Z,24.3
2018-04-11T02:32:56.770Z,24.7
2018-04-11T02:33:58.457Z,25.5
2018-04-11T02:35:00.113Z,24.7
2018-04-11T02:36:01.778Z,24.7
2018-04-11T02:37:03.431Z,22.2
2018-04-11T02:38:05.087Z,22.6
2018-04-11T02:39:06.756Z,24.4
2018-04-11T02:40:08.410Z,24.8
2018-04-11T02:41:10.061Z,24.2
2018-04-11T02:42:11.723Z,25.4
2018-04-11T02:43:13.368Z,24.9
2018-04-11T02:44:15.039Z,25.1
2018-04-11T02:45:16.685Z,24.8
2018-04-11T02:46:18.332Z,24.3
2018-04-11T02:47:19.987Z,25.2
2018-04-11T02:48:21.652Z,25.8
2018-04-11T02:49:23.309Z,25.7
2018-04-11T02:50:24.968Z,25.3
2018-04-11T02:51:26.609Z,25.5
2018-04-11T02:52:28.266Z,26.1
2018-04-11T02:53:29.915Z,27.3
2018-04-11T02:54:31.574Z,27.3
2018-04-11T02:55:33.229Z,26.2
2018-04-11T02:56:34.896Z,26.8
2018-04-11T02:57:36.539Z,27.1
2018-04-11T02:58:38.191Z,29.0
2018-04-11T02:59:39.844Z,27.5
2018-04-11T03:00:41.484Z,27.7
2018-04-11T03:01:43.143Z,26.4
2018-04-11T03:02:44.797Z,27.1
2018-04-11T03:03:46.454Z,27.2
2018-04-11T03:04:48.120Z,28.0
2018-04-11T03:05:49.778Z,28.2
2018-04-11T03:06:51.425Z,28.9
2018-04-11T03:07:53.072Z,28.6
2018-04-11T03:08:54.731Z,28.3
2018-04-11T03:09:56.378Z,28.1
2018-04-11T03:10:58.031Z,29.3
2018-04-11T03:11:59.687Z,27.6
2018-04-11T03:13:01.336Z,29.2
2018-04-11T03:14:02.985Z,30.8
2018-04-11T03:15:04.643Z,31.1
2018-04-11T03:16:06.288Z,30.9
2018-04-11T03:17:07.937Z,31.9
2018-04-11T03:18:09.590Z,30.3
2018-04-11T03:19:11.248Z,31.3
2018-04-11T03:20:12.909Z,32.0
2018-04-11T03:21:14.556Z,32.4
2018-04-11T03:22:16.202Z,32.7
2018-04-11T03:23:17.862Z,31.6
2018-04-11T03:24:19.508Z,31.1
2018-04-11T03:25:21.156Z,31.3
2018-04-11T03:26:22.808Z,33.2
2018-04-11T03:27:24.463Z,31.5
2018-04-11T03:28:26.112Z,33.1
2018-04-11T03:29:27.767Z,34.8
2018-04-11T03:30:29.414Z,34.2
2018-04-11T03:31:31.060Z,32.8
2018-04-11T03:32:32.710Z,32.2
2018-04-11T03:33:34.407Z,33.1
2018-04-11T03:34:36.020Z,32.3
2018-04-11T03:35:37.667Z,32.3
2018-04-11T03:36:39.316Z,32.6
2018-04-11T03:37:40.976Z,33.8
2018-04-11T03:38:42.623Z,34.4
2018-04-11T03:39:44.282Z,33.8
2018-04-11T03:40:45.935Z,35.6
2018-04-11T03:41:47.603Z,35.1
2018-04-11T03:42:49.251Z,35.4
2018-04-11T03:43:50.911Z,33.1
2018-04-11T03:44:52.567Z,33.8
2018-04-11T03:45:54.216Z,35.2
2018-04-11T03:46:55.867Z,34.1
2018-04-11T03:47:57.524Z,34.9
2018-04-11T03:48:59.167Z,35.9
2018-04-11T03:50:00.825Z,33.1
2018-04-11T03:51:02.477Z,34.8
2018-04-11T03:52:04.119Z,33.2
2018-04-11T03:53:05.771Z,33.1
2018-04-11T03:54:07.429Z,33.2
2018-04-11T03:55:09.078Z,35.0
2018-04-11T03:56:10.761Z,35.2
2018-04-11T03:57:12.412Z,35.3
2018-04-11T03:58:14.065Z,36.0
2018-04-11T03:59:15.712Z,36.7
2018-04-11T04:00:17.388Z,38.0
2018-04-11T04:01:19.117Z,36.8
2018-04-11T04:02:20.758Z,37.8
2018-04-11T04:03:22.413Z,38.5
2018-04-11T04:04:24.062Z,39.5
2018-04-11T04:05:25.710Z,37.8
2018-04-11T04:06:27.362Z,38.8
2018-04-11T04:07:29.022Z,43.2
2018-04-11T04:08:30.674Z,40.6
2018-04-11T04:09:32.350Z,41.2
2018-04-11T04:10:34.009Z,38.5
2018-04-11T04:11:35.655Z,41.3
2018-04-11T04:12:37.303Z,39.3
2018-04-11T04:13:38.959Z,39.0
2018-04-11T04:14:40.621Z,39.3
2018-04-11T04:15:42.278Z,38.8
2018-04-11T04:16:44.219Z,37.8
2018-04-11T04:17:45.916Z,38.7
2018-04-11T04:18:47.592Z,36.8
2018-04-11T04:19:49.280Z,37.2
2018-04-11T04:20:50.881Z,36.5
2018-04-11T04:21:52.539Z,38.2
2018-04-11T04:22:54.213Z,39.8
2018-04-11T04:23:55.871Z,38.6
2018-04-11T04:24:57.522Z,41.3
2018-04-11T04:25:59.175Z,40.9
2018-04-11T04:27:00.826Z,43.8
2018-04-11T04:28:02.497Z,49.5
2018-04-11T04:29:04.146Z,50.1
2018-04-11T04:30:05.805Z,50.2
2018-04-11T04:31:07.466Z,50.0
2018-04-11T04:32:09.117Z,50.9
2018-04-11T04:33:10.771Z,48.9
2018-04-11T04:34:12.443Z,45.1
2018-04-11T04:35:14.104Z,44.4
2018-04-11T04:36:15.750Z,43.1
2018-04-11T04:37:17.416Z,42.9
2018-04-11T04:38:19.064Z,43.0
2018-04-11T04:39:20.715Z,43.2
2018-04-11T04:40:22.377Z,40.6
2018-04-11T04:41:24.030Z,39.4
2018-04-11T04:42:25.686Z,39.8
2018-04-11T04:43:27.339Z,40.1
2018-04-11T04:44:28.995Z,38.3
2018-04-11T04:45:30.653Z,38.1
2018-04-11T04:46:32.311Z,39.5
2018-04-11T04:47:33.968Z,40.1
2018-04-11T04:48:35.627Z,39.6
2018-04-11T04:49:37.275Z,39.3
2018-04-11T04:50:38.934Z,39.0
2018-04-11T04:51:40.599Z,37.9
2018-04-11T04:52:42.255Z,39.8
2018-04-11T04:53:43.932Z,40.6
2018-04-11T04:54:45.582Z,37.8
2018-04-11T04:55:47.260Z,40.1
2018-04-11T04:56:48.919Z,39.3
2018-04-11T04:57:50.574Z,37.4
2018-04-11T04:58:52.229Z,39.6
2018-04-11T04:59:53.916Z,39.4
2018-04-11T05:00:55.565Z,38.8
2018-04-11T05:01:57.245Z,39.3
2018-04-11T05:02:58.902Z,38.4
2018-04-11T05:04:00.567Z,39.4
2018-04-11T05:05:02.211Z,38.8
2018-04-11T05:06:03.878Z,38.1
2018-04-11T05:07:07.211Z,37.5
2018-04-11T05:08:09.719Z,38.8
2018-04-11T05:09:15.025Z,39.4
2018-04-11T05:10:16.686Z,38.9
2018-04-11T05:11:18.368Z,38.9
2018-04-11T05:12:20.025Z,37.2
2018-04-11T05:13:21.681Z,37.9
2018-04-11T05:14:23.350Z,37.6
2018-04-11T05:15:25.009Z,39.3
2018-04-11T05:16:26.660Z,38.0
2018-04-11T05:17:28.321Z,37.6
2018-04-11T05:18:29.977Z,37.9
2018-04-11T05:19:31.644Z,40.8
2018-04-11T05:20:33.297Z,40.0
2018-04-11T05:21:34.954Z,37.5
2018-04-11T05:22:37.037Z,36.8
2018-04-11T05:23:38.682Z,35.7
2018-04-11T05:24:40.351Z,35.4
2018-04-11T05:25:42.005Z,36.7
2018-04-11T05:26:43.664Z,36.4
2018-04-11T05:27:45.319Z,37.5
2018-04-11T05:28:47.024Z,36.9
2018-04-11T05:29:48.659Z,37.6
2018-04-11T05:30:50.340Z,38.6
2018-04-11T05:31:52.130Z,37.3
2018-04-11T05:32:53.786Z,37.6
2018-04-11T05:33:55.437Z,38.4
2018-04-11T05:34:57.105Z,37.1
2018-04-11T05:35:58.766Z,37.3
2018-04-11T05:37:00.419Z,38.3
2018-04-11T05:38:02.103Z,36.1
2018-04-11T05:39:03.746Z,37.4
2018-04-11T05:40:05.419Z,37.8
2018-04-11T05:41:07.062Z,35.9
2018-04-11T05:42:08.719Z,38.0
2018-04-11T05:43:10.373Z,38.3
2018-04-11T05:44:12.035Z,38.3
2018-04-11T05:45:13.687Z,37.4
2018-04-11T05:46:15.335Z,40.2
2018-04-11T05:47:16.999Z,40.4
2018-04-11T05:48:18.661Z,38.7
2018-04-11T05:49:20.320Z,39.3
2018-04-11T05:50:21.973Z,38.2
2018-04-11T05:51:23.626Z,37.8
2018-04-11T05:52:25.284Z,38.2
2018-04-11T05:53:26.995Z,37.9
2018-04-11T05:54:28.606Z,37.6
2018-04-11T06:01:02.396Z,33.1
2018-04-11T06:02:04.052Z,33.4
2018-04-11T06:03:05.724Z,35.9
2018-04-11T06:04:07.398Z,37.6
2018-04-11T06:05:09.062Z,36.1
2018-04-11T06:06:10.714Z,37.8
2018-04-11T06:07:12.371Z,36.2
2018-04-11T06:08:14.030Z,38.3
2018-04-11T06:09:15.679Z,38.6
2018-04-11T06:10:17.331Z,38.3
2018-04-11T06:11:18.989Z,36.5
2018-04-11T06:12:20.661Z,37.8
2018-04-11T06:13:22.324Z,35.2
2018-04-11T06:14:24.020Z,38.0
2018-04-11T06:15:25.686Z,36.9
2018-04-11T06:16:27.403Z,37.1
2018-04-11T06:17:29.113Z,36.5
2018-04-11T06:18:30.796Z,35.6
2018-04-11T06:19:32.502Z,37.0
2018-04-11T06:20:34.185Z,37.6
2018-04-11T06:21:35.883Z,37.1
2018-04-11T06:22:37.618Z,37.9
2018-04-11T06:23:39.342Z,38.7
2018-04-11T06:24:41.202Z,40.0
2018-04-11T06:25:42.982Z,38.2
2018-04-11T06:26:44.796Z,37.8
2018-04-11T06:27:46.547Z,39.0
2018-04-11T06:28:48.410Z,40.8
2018-04-11T06:29:50.245Z,37.5
2018-04-11T06:30:52.106Z,35.8
2018-04-11T06:31:53.946Z,35.9
2018-04-11T06:32:55.657Z,37.9
2018-04-11T06:33:57.513Z,37.3
2018-04-11T06:34:59.430Z,36.0
2018-04-11T06:36:01.210Z,36.1
2018-04-11T06:37:03.105Z,35.4
2018-04-11T06:38:04.989Z,36.2
2018-04-11T06:39:07.019Z,35.1
2018-04-11T06:40:09.138Z,34.5
2018-04-11T06:41:11.112Z,35.8
2018-04-11T06:42:13.086Z,35.3
2018-04-11T06:43:15.000Z,36.3
2018-04-11T06:44:16.787Z,36.6
2018-04-11T06:45:18.683Z,35.2
2018-04-11T06:46:20.536Z,35.3
2018-04-11T06:47:22.299Z,36.7
2018-04-11T06:48:24.113Z,36.5
2018-04-11T06:49:25.824Z,36.6
2018-04-11T06:50:27.710Z,34.5
2018-04-11T06:51:29.650Z,36.4
2018-04-11T06:52:31.518Z,36.2
2018-04-11T06:53:33.373Z,37.8
2018-04-11T06:54:35.745Z,37.1
2018-04-11T06:55:37.763Z,36.9
2018-04-11T06:56:39.844Z,36.8
2018-04-11T06:57:42.041Z,36.1
2018-04-11T06:58:44.151Z,36.9
2018-04-11T06:59:46.112Z,34.9
2018-04-11T07:00:47.811Z,35.0
2018-04-11T07:01:49.471Z,36.3
2018-04-11T07:02:51.188Z,38.7
2018-04-11T07:03:52.850Z,36.4
2018-04-11T07:04:54.535Z,37.1
2018-04-11T07:05:56.197Z,37.5
2018-04-11T07:06:57.860Z,36.0
2018-04-11T07:07:59.558Z,36.6
2018-04-11T07:09:01.268Z,39.3
2018-04-11T07:10:02.920Z,37.0
2018-04-11T07:11:04.607Z,38.1
2018-04-11T07:12:06.257Z,36.2
2018-04-11T07:13:07.930Z,36.4
2018-04-11T07:14:09.638Z,35.6
2018-04-11T07:15:11.295Z,38.1
2018-04-11T07:16:12.990Z,37.0
2018-04-11T07:17:14.653Z,37.5
2018-04-11T07:18:16.317Z,39.9
2018-04-11T07:19:17.973Z,38.6
2018-04-11T07:20:19.643Z,38.7
2018-04-11T07:21:21.314Z,39.0
2018-04-11T07:22:22.968Z,38.6
2018-04-11T07:23:24.619Z,37.2
2018-04-11T07:24:26.296Z,37.6
2018-04-11T07:25:27.959Z,38.4
2018-04-11T07:26:29.619Z,37.2
2018-04-11T07:27:31.295Z,38.4
2018-04-11T07:28:32.959Z,39.6
2018-04-11T07:29:34.624Z,39.9
2018-04-11T07:30:36.286Z,37.3
2018-04-11T07:31:37.993Z,38.5
2018-04-11T07:32:39.660Z,36.6
2018-04-11T07:33:41.322Z,38.3
2018-04-11T07:34:42.995Z,39.1
2018-04-11T07:35:44.664Z,38.5
2018-04-11T07:36:46.322Z,38.7
2018-04-11T07:37:47.994Z,38.7
2018-04-11T07:38:49.647Z,38.5
2018-04-11T07:39:51.311Z,38.3
2018-04-11T07:40:52.967Z,37.0
2018-04-11T07:41:54.635Z,36.2
2018-04-11T07:42:56.304Z,38.0
2018-04-11T07:43:57.969Z,39.0
2018-04-11T07:44:59.625Z,39.2
2018-04-11T07:46:01.356Z,38.9
2018-04-11T07:47:02.970Z,39.6
2018-04-11T07:48:04.636Z,38.2
2018-04-11T07:49:06.301Z,37.8
2018-04-11T07:50:07.956Z,40.9
2018-04-11T07:51:09.679Z,42.2
2018-04-11T07:52:11.354Z,41.0
2018-04-11T07:53:13.012Z,40.5
2018-04-11T07:54:14.671Z,41.6
2018-04-11T07:55:16.338Z,40.5
2018-04-11T07:56:18.014Z,42.6
2018-04-11T07:57:19.663Z,42.0
2018-04-11T07:58:21.318Z,42.0
2018-04-11T07:59:22.983Z,40.9
2018-04-11T08:00:24.644Z,42.1
2018-04-11T08:01:26.309Z,42.4
2018-04-11T08:02:27.968Z,43.3
2018-04-11T08:03:29.642Z,41.6
2018-04-11T08:04:31.288Z,43.9
2018-04-11T08:05:32.952Z,41.4
2018-04-11T08:06:34.612Z,43.9
2018-04-11T08:07:36.277Z,44.3
2018-04-11T08:08:38.029Z,41.7
2018-04-11T08:09:39.569Z,42.6
2018-04-11T08:10:41.234Z,43.2
2018-04-11T08:11:42.910Z,42.9
2018-04-11T08:12:44.571Z,44.1
2018-04-11T08:13:46.232Z,38.9
2018-04-11T08:14:47.922Z,37.6
2018-04-11T08:15:49.580Z,38.9
2018-04-11T08:16:51.235Z,38.0
2018-04-11T08:17:52.889Z,34.8
2018-04-11T08:18:54.560Z,36.0
2018-04-11T08:19:56.211Z,33.9
2018-04-11T08:20:57.859Z,34.3
2018-04-11T08:21:59.524Z,33.6
2018-04-11T08:23:01.181Z,33.7
2018-04-11T08:24:02.847Z,33.6
2018-04-11T08:25:04.513Z,29.4
2018-04-11T08:26:06.182Z,32.3
2018-04-11T08:27:07.845Z,31.1
2018-04-11T08:28:09.511Z,30.1
2018-04-11T08:29:11.169Z,27.5
2018-04-11T08:30:12.844Z,26.7
2018-04-11T08:31:14.504Z,27.8
2018-04-11T08:32:16.176Z,27.4
2018-04-11T08:33:17.834Z,25.4
2018-04-11T08:34:19.500Z,26.2
2018-04-11T08:35:21.158Z,25.0
2018-04-11T08:36:22.861Z,23.0
2018-04-11T08:37:24.511Z,20.8
2018-04-11T08:38:26.192Z,19.3
2018-04-11T08:39:27.840Z,18.3
2018-04-11T08:40:29.521Z,17.2
2018-04-11T08:41:31.180Z,17.9
2018-04-11T08:42:32.831Z,17.5
2018-04-11T08:43:34.509Z,17.2
2018-04-11T08:44:36.167Z,15.9
2018-04-11T08:45:37.823Z,14.6
2018-04-11T08:46:39.491Z,14.0
2018-04-11T08:47:41.156Z,14.1
2018-04-11T08:48:42.821Z,11.8
2018-04-11T08:49:44.486Z,12.0
2018-04-11T08:50:46.149Z,11.6
2018-04-11T08:51:47.848Z,11.3
2018-04-11T08:52:49.519Z,10.4
2018-04-11T08:53:51.178Z,11.1
2018-04-11T08:54:52.880Z,10.7
2018-04-11T08:55:54.539Z,9.1
2018-04-11T08:56:56.199Z,10.1
2018-04-11T08:57:57.855Z,9.5
2018-04-11T08:58:59.520Z,9.3
2018-04-11T09:00:01.184Z,10.0
2018-04-11T09:01:02.851Z,9.8
2018-04-11T09:02:04.513Z,8.9
2018-04-11T09:03:06.169Z,8.8
2018-04-11T09:04:07.834Z,8.7
2018-04-11T09:05:09.493Z,8.7
2018-04-11T09:06:11.144Z,8.8
2018-04-11T09:07:12.806Z,9.2
2018-04-11T09:08:14.472Z,9.3
2018-04-11T09:09:16.137Z,8.1
2018-04-11T09:10:17.798Z,9.0
2018-04-11T09:11:19.456Z,9.0
2018-04-11T09:12:21.116Z,8.3
2018-04-11T09:13:22.793Z,9.0
2018-04-11T09:14:24.462Z,9.4
2018-04-11T09:15:26.143Z,9.8
2018-04-11T09:16:27.803Z,9.7
2018-04-11T09:17:29.455Z,9.8
2018-04-11T09:18:31.123Z,10.1
2018-04-11T09:19:32.779Z,8.7
2018-04-11T09:20:34.449Z,9.4
2018-04-11T09:21:36.119Z,10.4
2018-04-11T09:22:37.789Z,9.6
2018-04-11T09:23:39.454Z,10.4
2018-04-11T09:24:41.109Z,10.0
2018-04-11T09:25:42.767Z,9.4
2018-04-11T09:26:44.429Z,9.2
2018-04-11T09:27:46.090Z,9.9
2018-04-11T09:28:47.782Z,9.7
2018-04-11T09:29:49.440Z,9.4
2018-04-11T09:30:51.124Z,8.8
2018-04-11T09:31:52.831Z,8.9
2018-04-11T09:32:54.452Z,9.5
2018-04-11T09:33:56.149Z,8.7
2018-04-11T09:34:57.829Z,9.6
2018-04-11T09:35:59.515Z,9.1
2018-04-11T09:37:01.148Z,9.5
2018-04-11T09:38:02.835Z,9.5
2018-04-11T09:39:04.501Z,9.0
2018-04-11T09:40:06.188Z,10.3
2018-04-11T09:41:07.855Z,10.7
2018-04-11T09:42:09.520Z,9.6
2018-04-11T09:43:11.188Z,9.6
2018-04-11T09:44:12.963Z,10.4
2018-04-11T09:45:14.620Z,9.9
2018-04-11T09:46:16.284Z,9.9
2018-04-11T09:47:17.948Z,12.6
2018-04-11T09:48:19.611Z,10.8
2018-04-11T09:49:21.272Z,9.6
2018-04-11T09:50:22.968Z,11.2
2018-04-11T09:51:24.626Z,11.6
2018-04-11T09:52:26.295Z,11.9
2018-04-11T09:53:27.957Z,10.5
2018-04-11T09:54:29.618Z,10.9
2018-04-11T09:55:31.279Z,11.0
2018-04-11T10:01:51.889Z,9.3
2018-04-11T10:02:53.553Z,11.3
2018-04-11T10:04:45.460Z,11.9
2018-04-11T10:05:47.144Z,12.5
2018-04-11T10:07:39.029Z,12.2
2018-04-11T10:08:40.693Z,12.4
2018-04-11T10:09:42.347Z,13.9
2018-04-11T10:10:44.013Z,14.2
2018-04-11T10:11:45.673Z,12.8
2018-04-11T10:12:47.372Z,14.3
2018-04-11T10:13:49.038Z,14.1
2018-04-11T10:14:50.700Z,13.6
2018-04-11T10:15:52.352Z,13.5
2018-04-11T10:16:54.026Z,12.6
2018-04-11T10:17:55.687Z,12.4
2018-04-11T10:18:57.364Z,13.2
2018-04-11T10:19:59.025Z,12.8
2018-04-11T10:21:00.695Z,12.5
2018-04-11T10:22:02.356Z,12.5
2018-04-11T10:23:04.018Z,12.4
2018-04-11T10:24:05.687Z,11.4
2018-04-11T10:25:07.356Z,12.9
2018-04-11T10:26:09.017Z,11.8
2018-04-11T10:27:10.687Z,12.1
2018-04-11T10:28:12.340Z,12.5
2018-04-11T10:29:14.006Z,13.4
2018-04-11T10:30:15.664Z,13.3
2018-04-11T10:31:17.327Z,12.6
2018-04-11T10:32:19.062Z,14.8
2018-04-11T10:33:20.721Z,11.7
2018-04-11T10:34:22.383Z,12.6
2018-04-11T10:35:24.054Z,12.6
2018-04-11T10:36:25.724Z,11.9
2018-04-11T10:37:27.400Z,11.9
2018-04-11T10:38:29.062Z,12.4
2018-04-11T10:39:30.715Z,11.6
2018-04-11T10:40:32.395Z,11.5
2018-04-11T10:41:34.057Z,11.3
2018-04-11T10:42:35.719Z,11.3
2018-04-11T10:43:37.400Z,12.3
2018-04-11T10:44:39.120Z,11.9
2018-04-11T10:45:40.775Z,12.4
2018-04-11T10:46:42.446Z,12.2
2018-04-11T10:47:44.111Z,12.9
2018-04-11T10:48:45.774Z,13.1
2018-04-11T10:49:47.474Z,13.1
2018-04-11T10:50:49.125Z,12.6
2018-04-11T10:51:50.786Z,12.3
2018-04-11T10:52:52.446Z,13.8
2018-04-11T10:53:54.126Z,12.8
2018-04-11T10:54:55.832Z,12.7
2018-04-11T10:55:57.490Z,13.9
2018-04-11T10:56:59.148Z,14.6
2018-04-11T10:58:00.822Z,13.5
2018-04-11T10:59:02.495Z,14.6
2018-04-11T11:00:04.156Z,13.8
2018-04-11T11:01:05.817Z,14.9
2018-04-11T11:02:07.478Z,16.1
2018-04-11T11:03:09.135Z,16.8
2018-04-11T11:04:10.801Z,16.4
2018-04-11T11:05:12.462Z,16.3
2018-04-11T11:06:14.129Z,15.3
2018-04-11T11:07:15.791Z,15.8
2018-04-11T11:08:17.453Z,15.2
2018-04-11T11:09:19.118Z,16.0
2018-04-11T11:10:20.777Z,15.1
2018-04-11T11:11:22.441Z,15.5
2018-04-11T11:12:24.116Z,15.9
2018-04-11T11:13:25.792Z,15.8
2018-04-11T11:14:27.460Z,16.2
2018-04-11T11:15:29.110Z,14.8
2018-04-11T11:16:30.804Z,15.1
2018-04-11T11:17:32.460Z,15.9
2018-04-11T11:18:34.162Z,15.5
2018-04-11T11:19:35.835Z,15.6
2018-04-11T11:20:37.534Z,15.4
2018-04-11T11:21:39.189Z,17.2
2018-04-11T11:22:40.865Z,17.6
2018-04-11T11:23:42.626Z,16.3
2018-04-11T11:24:44.296Z,15.5
2018-04-11T11:25:45.967Z,16.0
2018-04-11T11:26:47.672Z,17.9
2018-04-11T11:27:49.329Z,16.4
2018-04-11T11:28:50.987Z,15.0
2018-04-11T11:29:52.652Z,15.3
2018-04-11T11:30:54.315Z,16.3
2018-04-11T11:31:55.998Z,16.7
2018-04-11T11:32:57.681Z,17.1
2018-04-11T11:33:59.343Z,19.2
2018-04-11T11:35:01.025Z,18.3
2018-04-11T11:36:02.676Z,21.0
2018-04-11T11:37:04.341Z,17.1
2018-04-11T11:38:06.009Z,17.0
2018-04-11T11:39:07.678Z,18.0
2018-04-11T11:40:09.346Z,16.7
2018-04-11T11:41:11.002Z,15.4
2018-04-11T11:42:12.664Z,15.7
2018-04-11T11:43:14.331Z,16.9
2018-04-11T11:44:15.996Z,18.1
2018-04-11T11:45:17.667Z,19.2
2018-04-11T11:46:19.334Z,17.5
2018-04-11T11:47:21.004Z,16.9
2018-04-11T11:48:22.673Z,16.2
2018-04-11T11:49:24.327Z,16.8
2018-04-11T11:50:26.005Z,16.5
2018-04-11T11:51:27.662Z,18.5
2018-04-11T11:52:29.318Z,19.7
2018-04-11T11:53:31.022Z,18.8
2018-04-11T11:54:32.680Z,19.6
2018-04-11T11:55:34.343Z,21.1
2018-04-11T11:56:36.012Z,20.3
2018-04-11T11:57:37.675Z,20.7
2018-04-11T11:58:39.343Z,21.6
2018-04-11T11:59:41.005Z,20.4
2018-04-11T12:00:42.660Z,20.5
2018-04-11T12:01:44.367Z,18.6
2018-04-11T12:02:46.044Z,19.2
2018-04-11T12:03:47.756Z,20.8
2018-04-11T12:04:49.474Z,19.3
2018-04-11T12:05:51.141Z,19.8
2018-04-11T12:06:52.973Z,20.0
2018-04-11T12:07:55.079Z,21.4
2018-04-11T12:08:56.751Z,19.9
2018-04-11T12:09:58.443Z,20.1
2018-04-11T12:11:00.115Z,20.6
2018-04-11T12:12:01.776Z,20.8
2018-04-11T12:13:03.437Z,20.1
2018-04-11T12:14:05.103Z,21.5
2018-04-11T12:15:06.762Z,19.6
2018-04-11T12:16:08.428Z,22.4
2018-04-11T12:17:10.110Z,20.4
2018-04-11T12:18:11.772Z,20.7
2018-04-11T12:19:13.432Z,19.8
2018-04-11T12:20:15.088Z,22.2
2018-04-11T12:21:16.760Z,21.3
2018-04-11T12:22:18.430Z,22.1
2018-04-11T12:23:20.942Z,21.8
2018-04-11T12:24:22.613Z,20.8
2018-04-11T12:25:24.277Z,23.1
2018-04-11T12:26:25.937Z,23.2
2018-04-11T12:27:27.606Z,21.9
2018-04-11T12:28:29.263Z,21.8
2018-04-11T12:29:30.926Z,22.1
2018-04-11T12:30:32.580Z,23.2
2018-04-11T12:31:34.255Z,22.8
2018-04-11T12:32:35.913Z,22.8
2018-04-11T12:33:37.576Z,21.8
2018-04-11T12:34:39.243Z,21.3
2018-04-11T12:35:40.887Z,22.4
2018-04-11T12:36:42.557Z,21.5
2018-04-11T12:37:44.219Z,21.1
2018-04-11T12:38:45.896Z,21.4
2018-04-11T12:39:47.579Z,23.4
2018-04-11T12:40:49.238Z,21.1
2018-04-11T12:41:50.903Z,22.5
2018-04-11T12:42:52.569Z,21.5
2018-04-11T12:43:54.234Z,20.7
2018-04-11T12:44:55.900Z,20.8
2018-04-11T12:45:57.565Z,21.8
2018-04-11T12:46:59.226Z,20.2
2018-04-11T12:48:00.892Z,21.4
2018-04-11T12:49:02.552Z,21.4
2018-04-11T12:50:04.222Z,20.9
2018-04-11T12:51:05.891Z,21.2
2018-04-11T12:52:07.562Z,21.3
2018-04-11T12:53:09.236Z,21.5
2018-04-11T12:54:10.902Z,21.8
2018-04-11T12:55:12.571Z,19.8
2018-04-11T12:56:14.224Z,19.0
2018-04-11T12:57:15.880Z,19.1
2018-04-11T12:58:17.570Z,18.1
2018-04-11T12:59:19.232Z,18.2
2018-04-11T13:00:20.891Z,18.9
2018-04-11T13:01:22.609Z,19.5
2018-04-11T13:02:24.256Z,18.7
2018-04-11T13:03:25.917Z,17.9
2018-04-11T13:04:27.589Z,18.0
2018-04-11T13:05:29.241Z,18.3
2018-04-11T13:06:30.910Z,17.7
2018-04-11T13:07:32.572Z,12.8
2018-04-11T13:08:34.237Z,13.6
2018-04-11T13:09:35.895Z,13.1
2018-04-11T13:10:37.559Z,13.9
2018-04-11T13:11:39.289Z,12.9
2018-04-11T13:12:41.005Z,13.8
2018-04-11T13:13:42.664Z,13.4
2018-04-11T13:14:44.341Z,13.7
2018-04-11T13:15:46.004Z,12.8
2018-04-11T13:16:47.692Z,11.6
2018-04-11T13:17:49.354Z,11.9
2018-04-11T13:18:51.031Z,11.7
2018-04-11T13:19:52.711Z,12.5
2018-04-11T13:20:54.397Z,12.9
2018-04-11T13:21:56.079Z,14.4
2018-04-11T13:22:57.738Z,13.8
2018-04-11T13:23:59.412Z,14.1
2018-04-11T13:25:01.105Z,13.4
2018-04-11T13:26:02.796Z,14.1
2018-04-11T13:27:04.470Z,14.5
2018-04-11T13:28:06.128Z,13.3
2018-04-11T13:29:07.862Z,13.8
2018-04-11T13:30:09.536Z,13.3
2018-04-11T13:31:11.200Z,13.2
2018-04-11T13:32:12.863Z,13.9
2018-04-11T13:33:14.532Z,13.8
2018-04-11T13:34:16.195Z,12.3
2018-04-11T13:35:17.867Z,13.6
2018-04-11T13:36:19.529Z,13.3
2018-04-11T13:37:21.194Z,14.1
2018-04-11T13:38:22.852Z,14.1
2018-04-11T13:39:24.516Z,13.0
2018-04-11T13:40:26.185Z,13.6
2018-04-11T13:41:27.866Z,13.2
2018-04-11T13:42:29.518Z,13.6
2018-04-11T13:43:31.198Z,13.7
2018-04-11T13:44:32.862Z,15.1
2018-04-11T13:45:34.523Z,15.2
2018-04-11T13:46:36.192Z,15.5
2018-04-11T13:47:37.861Z,14.1
2018-04-11T13:48:39.527Z,14.2
2018-04-11T13:49:41.253Z,14.7
2018-04-11T13:50:42.894Z,14.3
2018-04-11T13:51:44.565Z,13.9
2018-04-11T13:52:46.261Z,12.5
2018-04-11T13:53:47.953Z,12.8
2018-04-11T13:54:49.622Z,13.5
2018-04-11T14:01:26.142Z,9.9
2018-04-11T14:02:27.937Z,9.3
2018-04-11T14:03:29.584Z,9.6
2018-04-11T14:04:31.240Z,9.4
2018-04-11T14:05:32.901Z,9.5
2018-04-11T14:06:34.564Z,9.6
2018-04-11T14:07:36.235Z,9.6